VCP55C RKPC-RCTP
Flight info
| Callsign | VCP55C |
|---|---|
| Flight time | 1h 46m |
| Altitude | 36000 |
| Route | PANSI2E PANSI Y711 MUGUS Y742 SALMI B576 BAKER BAKER1A |
| Aircraft | A320/M-SDE3FGHIRWY/LB1 |
Departure
| Time | 2026-05-05 10:18 |
|---|---|
| Airport | Jeju International Airport (RKPC) |
Arrival
| Time | 2026-05-05 12:04 |
|---|---|
| Airport | Taiwan Taoyuan International Airport (RCTP) |
| Time | Latitude | Longitude | Altitude | Speed | Heading |
|---|---|---|---|---|---|
| 2026-05-05 09:41 | 33.50612 | 126.48987 | 72 ft | 0 kts | 148° |
| 2026-05-05 10:09 | 33.50618 | 126.48983 | 78 ft | 3 kts | 148° |
| 2026-05-05 10:09 | 33.50633 | 126.48972 | 71 ft | 3 kts | 148° |
| 2026-05-05 10:10 | 33.50648 | 126.48961 | 70 ft | 3 kts | 148° |
| 2026-05-05 10:10 | 33.50662 | 126.48950 | 66 ft | 2 kts | 148° |
| 2026-05-05 10:10 | 33.50677 | 126.48938 | 66 ft | 2 kts | 153° |
| 2026-05-05 10:10 | 33.50693 | 126.48936 | 66 ft | 2 kts | 226° |
| 2026-05-05 10:11 | 33.50703 | 126.48952 | 66 ft | 1 kts | 239° |
| 2026-05-05 10:11 | 33.50703 | 126.48953 | 66 ft | 0 kts | 239° |
| 2026-05-05 10:12 | 33.50703 | 126.48952 | 66 ft | 0 kts | 239° |
| 2026-05-05 10:12 | 33.50695 | 126.48938 | 69 ft | 3 kts | 238° |
| 2026-05-05 10:12 | 33.50680 | 126.48910 | 69 ft | 6 kts | 237° |
| 2026-05-05 10:13 | 33.50655 | 126.48862 | 68 ft | 7 kts | 237° |
| 2026-05-05 10:13 | 33.50621 | 126.48799 | 81 ft | 11 kts | 237° |
| 2026-05-05 10:13 | 33.50578 | 126.48720 | 82 ft | 12 kts | 237° |
| 2026-05-05 10:13 | 33.50534 | 126.48636 | 85 ft | 12 kts | 240° |
| 2026-05-05 10:14 | 33.50565 | 126.48553 | 87 ft | 12 kts | 325° |
| 2026-05-05 10:14 | 33.50622 | 126.48478 | 85 ft | 13 kts | 269° |
| 2026-05-05 10:14 | 33.50583 | 126.48377 | 85 ft | 14 kts | 239° |
| 2026-05-05 10:14 | 33.50532 | 126.48277 | 91 ft | 14 kts | 239° |
| 2026-05-05 10:15 | 33.50479 | 126.48174 | 89 ft | 15 kts | 238° |
| 2026-05-05 10:15 | 33.50424 | 126.48067 | 93 ft | 15 kts | 238° |
| 2026-05-05 10:15 | 33.50367 | 126.47959 | 92 ft | 15 kts | 238° |
| 2026-05-05 10:15 | 33.50308 | 126.47847 | 96 ft | 17 kts | 238° |
| 2026-05-05 10:16 | 33.50233 | 126.47708 | 97 ft | 22 kts | 236° |
| 2026-05-05 10:16 | 33.50152 | 126.47544 | 102 ft | 23 kts | 240° |
| 2026-05-05 10:16 | 33.50069 | 126.47375 | 102 ft | 24 kts | 238° |
| 2026-05-05 10:16 | 33.49979 | 126.47203 | 105 ft | 25 kts | 237° |
| 2026-05-05 10:17 | 33.49891 | 126.47041 | 107 ft | 23 kts | 239° |
| 2026-05-05 10:17 | 33.49930 | 126.46906 | 109 ft | 19 kts | 322° |
| 2026-05-05 10:17 | 33.50038 | 126.46938 | 107 ft | 20 kts | 54° |
| 2026-05-05 10:17 | 33.50172 | 126.47196 | 102 ft | 64 kts | 59° |
| 2026-05-05 10:18 | 33.50515 | 126.47866 | 92 ft | 121 kts | 58° |
| 2026-05-05 10:18 | 33.51041 | 126.48881 | 139 ft | 158 kts | 58° |
| 2026-05-05 10:18 | 33.51603 | 126.49966 | 776 ft | 153 kts | 60° |
| 2026-05-05 10:18 | 33.52160 | 126.51057 | 1335 ft | 154 kts | 58° |
| 2026-05-05 10:19 | 33.52725 | 126.52159 | 1899 ft | 159 kts | 59° |
| 2026-05-05 10:19 | 33.53339 | 126.53358 | 2173 ft | 180 kts | 60° |
| 2026-05-05 10:19 | 33.54034 | 126.54719 | 2417 ft | 204 kts | 60° |
| 2026-05-05 10:19 | 33.54818 | 126.56252 | 2774 ft | 228 kts | 60° |
| 2026-05-05 10:20 | 33.55685 | 126.57948 | 3184 ft | 251 kts | 60° |
| 2026-05-05 10:20 | 33.56717 | 126.59756 | 3726 ft | 269 kts | 45° |
| 2026-05-05 10:20 | 33.58300 | 126.60958 | 4563 ft | 273 kts | 16° |
| 2026-05-05 10:20 | 33.60171 | 126.61150 | 5455 ft | 272 kts | 349° |
| 2026-05-05 10:21 | 33.61940 | 126.60395 | 6316 ft | 273 kts | 326° |
| 2026-05-05 10:21 | 33.63298 | 126.58817 | 7103 ft | 275 kts | 301° |
| 2026-05-05 10:21 | 33.64010 | 126.56682 | 7599 ft | 291 kts | 277° |
| 2026-05-05 10:21 | 33.63842 | 126.54204 | 7855 ft | 313 kts | 250° |
| 2026-05-05 10:22 | 33.62629 | 126.51945 | 8070 ft | 336 kts | 223° |
| 2026-05-05 10:22 | 33.60588 | 126.50454 | 8421 ft | 352 kts | 205° |
| 2026-05-05 10:22 | 33.58325 | 126.49256 | 9096 ft | 356 kts | 204° |
| 2026-05-05 10:22 | 33.56015 | 126.48131 | 9813 ft | 360 kts | 202° |
| 2026-05-05 10:23 | 33.53679 | 126.47025 | 10475 ft | 363 kts | 202° |
| 2026-05-05 10:23 | 33.51315 | 126.45902 | 11115 ft | 367 kts | 202° |
| 2026-05-05 10:23 | 33.48939 | 126.44754 | 11751 ft | 370 kts | 203° |
| 2026-05-05 10:23 | 33.46539 | 126.43577 | 12387 ft | 373 kts | 203° |
| 2026-05-05 10:24 | 33.44128 | 126.42381 | 13009 ft | 377 kts | 204° |
| 2026-05-05 10:24 | 33.41704 | 126.41173 | 13652 ft | 380 kts | 204° |
| 2026-05-05 10:24 | 33.39257 | 126.39952 | 14292 ft | 381 kts | 204° |
| 2026-05-05 10:24 | 33.36802 | 126.38726 | 14831 ft | 384 kts | 204° |
| 2026-05-05 10:25 | 33.34358 | 126.37508 | 15380 ft | 387 kts | 204° |
| 2026-05-05 10:25 | 33.31857 | 126.36259 | 15893 ft | 390 kts | 204° |
| 2026-05-05 10:25 | 33.29341 | 126.35006 | 16444 ft | 393 kts | 204° |
| 2026-05-05 10:25 | 33.26811 | 126.33751 | 17004 ft | 395 kts | 204° |
| 2026-05-05 10:26 | 33.24253 | 126.32484 | 17563 ft | 398 kts | 204° |
| 2026-05-05 10:26 | 33.21688 | 126.31215 | 18122 ft | 400 kts | 205° |
| 2026-05-05 10:26 | 33.19111 | 126.29941 | 18652 ft | 403 kts | 205° |
| 2026-05-05 10:26 | 33.16516 | 126.28656 | 19152 ft | 405 kts | 205° |
| 2026-05-05 10:27 | 33.13911 | 126.27365 | 19660 ft | 406 kts | 205° |
| 2026-05-05 10:27 | 33.11290 | 126.26066 | 20173 ft | 408 kts | 205° |
| 2026-05-05 10:27 | 33.08666 | 126.24765 | 20682 ft | 410 kts | 205° |
| 2026-05-05 10:27 | 33.06021 | 126.23455 | 21117 ft | 413 kts | 205° |
| 2026-05-05 10:28 | 33.03381 | 126.22150 | 21564 ft | 415 kts | 205° |
| 2026-05-05 10:28 | 33.00706 | 126.20830 | 21990 ft | 417 kts | 205° |
| 2026-05-05 10:28 | 32.97993 | 126.19548 | 22417 ft | 420 kts | 204° |
| 2026-05-05 10:28 | 32.95243 | 126.18341 | 22835 ft | 422 kts | 202° |
| 2026-05-05 10:29 | 32.92468 | 126.17180 | 23245 ft | 424 kts | 202° |
| 2026-05-05 10:29 | 32.89669 | 126.16030 | 23653 ft | 426 kts | 202° |
| 2026-05-05 10:29 | 32.86861 | 126.14870 | 24000 ft | 428 kts | 202° |
| 2026-05-05 10:29 | 32.84046 | 126.13689 | 24363 ft | 428 kts | 203° |
| 2026-05-05 10:30 | 32.81239 | 126.12495 | 24759 ft | 428 kts | 203° |
| 2026-05-05 10:30 | 32.78436 | 126.11290 | 25133 ft | 429 kts | 204° |
| 2026-05-05 10:30 | 32.75627 | 126.10082 | 25495 ft | 429 kts | 204° |
| 2026-05-05 10:30 | 32.72814 | 126.08877 | 25850 ft | 430 kts | 204° |
| 2026-05-05 10:31 | 32.69988 | 126.07670 | 26262 ft | 430 kts | 204° |
| 2026-05-05 10:31 | 32.67186 | 126.06476 | 26795 ft | 427 kts | 204° |
| 2026-05-05 10:31 | 32.64443 | 126.05306 | 27330 ft | 423 kts | 204° |
| 2026-05-05 10:31 | 32.61651 | 126.04110 | 27919 ft | 419 kts | 204° |
| 2026-05-05 10:32 | 32.58956 | 126.02957 | 28487 ft | 416 kts | 205° |
| 2026-05-05 10:32 | 32.56245 | 126.01801 | 29062 ft | 412 kts | 205° |
| 2026-05-05 10:32 | 32.53546 | 126.00655 | 29645 ft | 409 kts | 205° |
| 2026-05-05 10:32 | 32.50872 | 125.99525 | 30221 ft | 406 kts | 205° |
| 2026-05-05 10:33 | 32.48222 | 125.98401 | 30700 ft | 403 kts | 205° |
| 2026-05-05 10:33 | 32.45589 | 125.97285 | 31191 ft | 399 kts | 206° |
| 2026-05-05 10:33 | 32.42992 | 125.96185 | 31724 ft | 395 kts | 206° |
| 2026-05-05 10:33 | 32.40409 | 125.95091 | 32192 ft | 392 kts | 206° |
| 2026-05-05 10:34 | 32.37838 | 125.94003 | 32642 ft | 391 kts | 206° |
| 2026-05-05 10:34 | 32.35286 | 125.92923 | 33091 ft | 389 kts | 206° |
| 2026-05-05 10:34 | 32.32744 | 125.91847 | 33537 ft | 388 kts | 206° |
| 2026-05-05 10:34 | 32.30207 | 125.90771 | 33984 ft | 386 kts | 206° |
| 2026-05-05 10:35 | 32.27686 | 125.89705 | 34356 ft | 384 kts | 207° |
| 2026-05-05 10:35 | 32.25205 | 125.88659 | 34772 ft | 381 kts | 207° |
| 2026-05-05 10:35 | 32.23521 | 125.87950 | 35021 ft | 380 kts | 207° |
| 2026-05-05 10:35 | 32.21036 | 125.86902 | 35349 ft | 379 kts | 207° |
| 2026-05-05 10:36 | 32.18548 | 125.85858 | 35662 ft | 379 kts | 207° |
| 2026-05-05 10:36 | 32.16065 | 125.84821 | 35949 ft | 378 kts | 207° |
| 2026-05-05 10:36 | 32.12775 | 125.83443 | 36121 ft | 381 kts | 207° |
| 2026-05-05 10:36 | 32.11080 | 125.82728 | 36142 ft | 385 kts | 207° |
| 2026-05-05 10:37 | 32.06008 | 125.80588 | 36138 ft | 390 kts | 207° |
| 2026-05-05 10:37 | 32.00899 | 125.78442 | 36136 ft | 390 kts | 207° |
| 2026-05-05 10:38 | 31.95784 | 125.76297 | 36142 ft | 390 kts | 207° |
| 2026-05-05 10:38 | 31.90668 | 125.74149 | 36130 ft | 391 kts | 207° |
| 2026-05-05 10:39 | 31.85539 | 125.71998 | 36123 ft | 391 kts | 207° |
| 2026-05-05 10:39 | 31.80411 | 125.69847 | 36137 ft | 391 kts | 207° |
| 2026-05-05 10:40 | 31.75294 | 125.67700 | 36142 ft | 390 kts | 207° |
| 2026-05-05 10:40 | 31.70183 | 125.65554 | 36146 ft | 390 kts | 207° |
| 2026-05-05 10:41 | 31.65112 | 125.63427 | 36143 ft | 389 kts | 207° |
| 2026-05-05 10:41 | 31.60026 | 125.61308 | 36152 ft | 387 kts | 207° |
| 2026-05-05 10:42 | 31.52412 | 125.58136 | 36156 ft | 386 kts | 207° |
| 2026-05-05 10:43 | 31.47359 | 125.56021 | 36139 ft | 385 kts | 208° |
| 2026-05-05 10:43 | 31.42320 | 125.53901 | 36151 ft | 384 kts | 208° |
| 2026-05-05 10:44 | 31.37285 | 125.51795 | 36150 ft | 384 kts | 208° |
| 2026-05-05 10:44 | 31.32259 | 125.49697 | 36171 ft | 383 kts | 208° |
| 2026-05-05 10:45 | 31.27232 | 125.47598 | 36123 ft | 383 kts | 208° |
| 2026-05-05 10:45 | 31.22204 | 125.45505 | 36138 ft | 383 kts | 208° |
| 2026-05-05 10:46 | 31.17223 | 125.43434 | 36146 ft | 382 kts | 208° |
| 2026-05-05 10:46 | 31.12210 | 125.41350 | 36146 ft | 382 kts | 208° |
| 2026-05-05 10:47 | 31.07204 | 125.39268 | 36146 ft | 382 kts | 208° |
| 2026-05-05 10:47 | 31.02195 | 125.37197 | 36149 ft | 382 kts | 208° |
| 2026-05-05 10:48 | 30.97181 | 125.35114 | 36146 ft | 382 kts | 208° |
| 2026-05-05 10:48 | 30.92177 | 125.33045 | 36147 ft | 382 kts | 208° |
| 2026-05-05 10:49 | 30.87167 | 125.30970 | 36107 ft | 382 kts | 208° |
| 2026-05-05 10:49 | 30.82150 | 125.28898 | 36107 ft | 384 kts | 208° |
| 2026-05-05 10:50 | 30.77096 | 125.26819 | 36110 ft | 385 kts | 208° |
| 2026-05-05 10:50 | 30.72044 | 125.24731 | 36132 ft | 386 kts | 208° |
| 2026-05-05 10:51 | 30.66977 | 125.22641 | 36101 ft | 387 kts | 208° |
| 2026-05-05 10:51 | 30.61925 | 125.20564 | 36116 ft | 387 kts | 208° |
| 2026-05-05 10:52 | 30.56847 | 125.18479 | 36125 ft | 387 kts | 208° |
| 2026-05-05 10:52 | 30.51769 | 125.16400 | 36131 ft | 387 kts | 208° |
| 2026-05-05 10:53 | 30.46681 | 125.14321 | 36106 ft | 387 kts | 208° |
| 2026-05-05 10:53 | 30.41611 | 125.12240 | 36124 ft | 386 kts | 208° |
| 2026-05-05 10:54 | 30.36533 | 125.10160 | 36139 ft | 386 kts | 208° |
| 2026-05-05 10:54 | 30.31467 | 125.08092 | 36140 ft | 386 kts | 208° |
| 2026-05-05 10:55 | 30.26428 | 125.06032 | 36102 ft | 386 kts | 208° |
| 2026-05-05 10:55 | 30.21368 | 125.03962 | 36116 ft | 386 kts | 208° |
| 2026-05-05 10:56 | 30.16309 | 125.01899 | 36124 ft | 386 kts | 208° |
| 2026-05-05 10:56 | 30.11243 | 124.99842 | 36125 ft | 386 kts | 208° |
| 2026-05-05 10:57 | 30.06176 | 124.97787 | 36132 ft | 386 kts | 208° |
| 2026-05-05 10:57 | 30.01110 | 124.95726 | 36126 ft | 386 kts | 208° |
| 2026-05-05 10:58 | 29.96049 | 124.93624 | 36122 ft | 385 kts | 209° |
| 2026-05-05 10:58 | 29.91056 | 124.91473 | 36132 ft | 385 kts | 209° |
| 2026-05-05 10:59 | 29.86035 | 124.89314 | 36084 ft | 385 kts | 209° |
| 2026-05-05 10:59 | 29.81003 | 124.87161 | 36099 ft | 386 kts | 209° |
| 2026-05-05 11:00 | 29.75958 | 124.85009 | 36108 ft | 386 kts | 209° |
| 2026-05-05 11:00 | 29.70909 | 124.82867 | 36118 ft | 386 kts | 208° |
| 2026-05-05 11:01 | 29.65894 | 124.80740 | 36122 ft | 386 kts | 208° |
| 2026-05-05 11:01 | 29.60856 | 124.78593 | 36108 ft | 386 kts | 209° |
| 2026-05-05 11:02 | 29.55809 | 124.76449 | 36115 ft | 387 kts | 208° |
| 2026-05-05 11:02 | 29.50757 | 124.74318 | 36124 ft | 387 kts | 208° |
| 2026-05-05 11:03 | 29.45701 | 124.72185 | 36139 ft | 387 kts | 208° |
| 2026-05-05 11:03 | 29.40648 | 124.70053 | 36104 ft | 387 kts | 208° |
| 2026-05-05 11:04 | 29.35588 | 124.67917 | 36108 ft | 387 kts | 208° |
| 2026-05-05 11:04 | 29.30531 | 124.65779 | 36112 ft | 387 kts | 208° |
| 2026-05-05 11:05 | 29.25496 | 124.63660 | 36119 ft | 387 kts | 208° |
| 2026-05-05 11:05 | 29.20434 | 124.61527 | 36097 ft | 387 kts | 208° |
| 2026-05-05 11:06 | 29.15381 | 124.59397 | 36109 ft | 387 kts | 208° |
| 2026-05-05 11:06 | 29.10317 | 124.57273 | 36113 ft | 387 kts | 208° |
| 2026-05-05 11:07 | 29.05250 | 124.55154 | 36121 ft | 387 kts | 208° |
| 2026-05-05 11:07 | 29.00223 | 124.53049 | 36127 ft | 387 kts | 208° |
| 2026-05-05 11:08 | 28.95241 | 124.50794 | 36114 ft | 380 kts | 216° |
| 2026-05-05 11:08 | 28.90912 | 124.47467 | 36141 ft | 374 kts | 221° |
| 2026-05-05 11:09 | 28.86659 | 124.44043 | 36132 ft | 374 kts | 220° |
| 2026-05-05 11:09 | 28.82397 | 124.40622 | 36127 ft | 375 kts | 220° |
| 2026-05-05 11:10 | 28.78125 | 124.37196 | 36106 ft | 375 kts | 221° |
| 2026-05-05 11:10 | 28.73865 | 124.33781 | 36117 ft | 375 kts | 221° |
| 2026-05-05 11:11 | 28.69622 | 124.30381 | 36117 ft | 375 kts | 220° |
| 2026-05-05 11:11 | 28.65349 | 124.26971 | 36119 ft | 375 kts | 220° |
| 2026-05-05 11:12 | 28.61083 | 124.23562 | 36074 ft | 375 kts | 220° |
| 2026-05-05 11:12 | 28.56812 | 124.20157 | 36106 ft | 375 kts | 220° |
| 2026-05-05 11:13 | 28.52546 | 124.16753 | 36107 ft | 375 kts | 220° |
| 2026-05-05 11:13 | 28.48277 | 124.13345 | 36109 ft | 375 kts | 220° |
| 2026-05-05 11:14 | 28.43998 | 124.09941 | 36116 ft | 375 kts | 220° |
| 2026-05-05 11:14 | 28.39729 | 124.06547 | 36090 ft | 375 kts | 220° |
| 2026-05-05 11:15 | 28.35449 | 124.03147 | 36100 ft | 375 kts | 220° |
| 2026-05-05 11:15 | 28.31200 | 123.99780 | 36102 ft | 375 kts | 220° |
| 2026-05-05 11:16 | 28.26949 | 123.96346 | 36107 ft | 374 kts | 221° |
| 2026-05-05 11:16 | 28.22721 | 123.92883 | 36120 ft | 374 kts | 221° |
| 2026-05-05 11:17 | 28.18496 | 123.89423 | 36083 ft | 375 kts | 221° |
| 2026-05-05 11:17 | 28.14259 | 123.85966 | 36086 ft | 375 kts | 221° |
| 2026-05-05 11:18 | 28.10011 | 123.82516 | 36091 ft | 376 kts | 220° |
| 2026-05-05 11:18 | 28.05758 | 123.79067 | 36097 ft | 376 kts | 221° |
| 2026-05-05 11:19 | 28.01500 | 123.75623 | 36070 ft | 376 kts | 220° |
| 2026-05-05 11:19 | 27.97264 | 123.72203 | 36079 ft | 376 kts | 220° |
| 2026-05-05 11:20 | 27.92996 | 123.68756 | 36090 ft | 377 kts | 220° |
| 2026-05-05 11:20 | 27.88737 | 123.65291 | 36099 ft | 377 kts | 221° |
| 2026-05-05 11:21 | 27.84487 | 123.61823 | 36103 ft | 377 kts | 221° |
| 2026-05-05 11:21 | 27.80226 | 123.58355 | 36078 ft | 377 kts | 220° |
| 2026-05-05 11:22 | 27.75957 | 123.54894 | 36080 ft | 378 kts | 220° |
| 2026-05-05 11:22 | 27.71691 | 123.51436 | 36088 ft | 378 kts | 220° |
| 2026-05-05 11:23 | 27.68134 | 123.48552 | 36093 ft | 378 kts | 220° |
| 2026-05-05 11:23 | 27.63161 | 123.44529 | 36098 ft | 378 kts | 220° |
| 2026-05-05 11:24 | 27.59598 | 123.41646 | 36058 ft | 378 kts | 220° |
| 2026-05-05 11:24 | 27.55317 | 123.38184 | 36073 ft | 379 kts | 220° |
| 2026-05-05 11:25 | 27.51038 | 123.34725 | 36087 ft | 379 kts | 220° |
| 2026-05-05 11:25 | 27.46744 | 123.31265 | 36093 ft | 379 kts | 220° |
| 2026-05-05 11:26 | 27.42452 | 123.27808 | 36102 ft | 379 kts | 220° |
| 2026-05-05 11:26 | 27.38158 | 123.24356 | 36078 ft | 379 kts | 220° |
| 2026-05-05 11:27 | 27.33863 | 123.20895 | 36084 ft | 379 kts | 220° |
| 2026-05-05 11:27 | 27.29567 | 123.17444 | 36091 ft | 379 kts | 220° |
| 2026-05-05 11:28 | 27.25269 | 123.14001 | 36097 ft | 380 kts | 220° |
| 2026-05-05 11:28 | 27.20985 | 123.10570 | 36098 ft | 380 kts | 220° |
| 2026-05-05 11:29 | 27.16682 | 123.07112 | 36087 ft | 381 kts | 220° |
| 2026-05-05 11:29 | 27.12362 | 123.03656 | 36091 ft | 381 kts | 220° |
| 2026-05-05 11:30 | 27.08046 | 123.00202 | 36090 ft | 381 kts | 220° |
| 2026-05-05 11:30 | 27.03722 | 122.96757 | 36098 ft | 381 kts | 220° |
| 2026-05-05 11:31 | 26.99399 | 122.93318 | 36093 ft | 381 kts | 220° |
| 2026-05-05 11:31 | 26.95095 | 122.89896 | 36090 ft | 381 kts | 220° |
| 2026-05-05 11:32 | 26.90765 | 122.86463 | 36115 ft | 381 kts | 220° |
| 2026-05-05 11:32 | 26.86427 | 122.83031 | 36107 ft | 381 kts | 220° |
| 2026-05-05 11:33 | 26.82089 | 122.79599 | 36099 ft | 382 kts | 220° |
| 2026-05-05 11:33 | 26.77763 | 122.76163 | 36081 ft | 382 kts | 220° |
| 2026-05-05 11:34 | 26.73426 | 122.72722 | 36062 ft | 382 kts | 220° |
| 2026-05-05 11:34 | 26.69084 | 122.69290 | 36077 ft | 382 kts | 220° |
| 2026-05-05 11:35 | 26.64764 | 122.65877 | 36069 ft | 383 kts | 220° |
| 2026-05-05 11:35 | 26.60385 | 122.62418 | 36082 ft | 383 kts | 220° |
| 2026-05-05 11:36 | 26.56068 | 122.59009 | 36056 ft | 383 kts | 220° |
| 2026-05-05 11:36 | 26.51706 | 122.55571 | 36063 ft | 384 kts | 220° |
| 2026-05-05 11:37 | 26.47332 | 122.52134 | 36056 ft | 384 kts | 219° |
| 2026-05-05 11:37 | 26.42954 | 122.48695 | 36069 ft | 385 kts | 219° |
| 2026-05-05 11:38 | 26.38564 | 122.45251 | 36080 ft | 385 kts | 219° |
| 2026-05-05 11:38 | 26.34215 | 122.41833 | 36036 ft | 385 kts | 220° |
| 2026-05-05 11:39 | 26.29825 | 122.38386 | 36044 ft | 387 kts | 220° |
| 2026-05-05 11:39 | 26.25416 | 122.34929 | 36050 ft | 388 kts | 220° |
| 2026-05-05 11:40 | 26.20991 | 122.31460 | 36079 ft | 388 kts | 219° |
| 2026-05-05 11:40 | 26.16570 | 122.28001 | 36083 ft | 388 kts | 219° |
| 2026-05-05 11:41 | 26.12149 | 122.24546 | 36053 ft | 388 kts | 219° |
| 2026-05-05 11:41 | 26.07706 | 122.21132 | 36048 ft | 389 kts | 219° |
| 2026-05-05 11:42 | 26.03224 | 122.17718 | 36051 ft | 391 kts | 219° |
| 2026-05-05 11:42 | 25.98731 | 122.14291 | 36052 ft | 391 kts | 219° |
| 2026-05-05 11:43 | 25.94246 | 122.10862 | 36061 ft | 392 kts | 219° |
| 2026-05-05 11:43 | 25.89770 | 122.07448 | 36025 ft | 392 kts | 219° |
| 2026-05-05 11:44 | 25.85263 | 122.04012 | 36045 ft | 394 kts | 219° |
| 2026-05-05 11:44 | 25.80736 | 122.00558 | 36047 ft | 395 kts | 219° |
| 2026-05-05 11:45 | 25.76203 | 121.97107 | 36051 ft | 395 kts | 219° |
| 2026-05-05 11:45 | 25.71667 | 121.93661 | 36043 ft | 396 kts | 219° |
| 2026-05-05 11:46 | 25.67146 | 121.90180 | 36012 ft | 396 kts | 221° |
| 2026-05-05 11:46 | 25.63354 | 121.85939 | 36015 ft | 388 kts | 238° |
| 2026-05-05 11:46 | 25.61943 | 121.83326 | 35823 ft | 390 kts | 242° |
| 2026-05-05 11:47 | 25.60603 | 121.80709 | 35586 ft | 392 kts | 242° |
| 2026-05-05 11:47 | 25.59272 | 121.78113 | 35364 ft | 394 kts | 241° |
| 2026-05-05 11:47 | 25.57913 | 121.75467 | 34712 ft | 396 kts | 241° |
| 2026-05-05 11:47 | 25.56549 | 121.72812 | 33935 ft | 399 kts | 240° |
| 2026-05-05 11:48 | 25.53784 | 121.67431 | 32338 ft | 404 kts | 240° |
| 2026-05-05 11:48 | 25.52381 | 121.64706 | 31473 ft | 408 kts | 240° |
| 2026-05-05 11:48 | 25.50972 | 121.61971 | 30696 ft | 410 kts | 240° |
| 2026-05-05 11:49 | 25.49556 | 121.59226 | 29725 ft | 413 kts | 240° |
| 2026-05-05 11:49 | 25.47939 | 121.56583 | 28645 ft | 418 kts | 232° |
| 2026-05-05 11:49 | 25.46031 | 121.54111 | 27526 ft | 424 kts | 230° |
| 2026-05-05 11:49 | 25.44095 | 121.51631 | 26432 ft | 428 kts | 230° |
| 2026-05-05 11:50 | 25.42159 | 121.49160 | 25368 ft | 431 kts | 230° |
| 2026-05-05 11:50 | 25.40172 | 121.46623 | 24293 ft | 433 kts | 230° |
| 2026-05-05 11:50 | 25.38197 | 121.44096 | 23227 ft | 433 kts | 230° |
| 2026-05-05 11:50 | 25.36253 | 121.41608 | 22073 ft | 433 kts | 230° |
| 2026-05-05 11:51 | 25.34271 | 121.39076 | 21209 ft | 425 kts | 230° |
| 2026-05-05 11:51 | 25.32383 | 121.36666 | 20220 ft | 415 kts | 230° |
| 2026-05-05 11:51 | 25.30510 | 121.34279 | 19113 ft | 408 kts | 230° |
| 2026-05-05 11:51 | 25.28669 | 121.31933 | 18012 ft | 401 kts | 229° |
| 2026-05-05 11:52 | 25.26857 | 121.29629 | 17041 ft | 391 kts | 230° |
| 2026-05-05 11:52 | 25.25095 | 121.27393 | 16202 ft | 380 kts | 230° |
| 2026-05-05 11:52 | 25.23381 | 121.25213 | 15378 ft | 371 kts | 231° |
| 2026-05-05 11:52 | 25.21709 | 121.23081 | 14607 ft | 362 kts | 231° |
| 2026-05-05 11:53 | 25.20083 | 121.21007 | 13883 ft | 353 kts | 232° |
| 2026-05-05 11:53 | 25.18487 | 121.18976 | 13123 ft | 349 kts | 232° |
| 2026-05-05 11:53 | 25.16899 | 121.16959 | 12442 ft | 349 kts | 232° |
| 2026-05-05 11:53 | 25.15261 | 121.14873 | 11862 ft | 365 kts | 231° |
| 2026-05-05 11:54 | 25.13596 | 121.12759 | 11154 ft | 364 kts | 231° |
| 2026-05-05 11:54 | 25.11977 | 121.10706 | 11008 ft | 344 kts | 231° |
| 2026-05-05 11:54 | 25.10444 | 121.08763 | 10891 ft | 325 kts | 231° |
| 2026-05-05 11:54 | 25.08994 | 121.06925 | 10755 ft | 310 kts | 231° |
| 2026-05-05 11:55 | 25.07627 | 121.05196 | 10641 ft | 297 kts | 231° |
| 2026-05-05 11:55 | 25.06291 | 121.03506 | 10522 ft | 286 kts | 231° |
| 2026-05-05 11:55 | 25.05005 | 121.01877 | 10340 ft | 271 kts | 231° |
| 2026-05-05 11:55 | 25.03802 | 121.00350 | 9920 ft | 264 kts | 231° |
| 2026-05-05 11:56 | 25.02599 | 120.98832 | 9291 ft | 262 kts | 231° |
| 2026-05-05 11:56 | 25.01397 | 120.97312 | 8657 ft | 261 kts | 231° |
| 2026-05-05 11:56 | 25.00207 | 120.95798 | 8050 ft | 261 kts | 231° |
| 2026-05-05 11:56 | 24.99019 | 120.94282 | 7426 ft | 261 kts | 231° |
| 2026-05-05 11:57 | 24.97835 | 120.92770 | 6827 ft | 261 kts | 230° |
| 2026-05-05 11:57 | 24.96433 | 120.91513 | 6223 ft | 263 kts | 203° |
| 2026-05-05 11:57 | 24.94631 | 120.91333 | 5645 ft | 267 kts | 168° |
| 2026-05-05 11:57 | 24.93068 | 120.92375 | 5281 ft | 262 kts | 129° |
| 2026-05-05 11:58 | 24.92432 | 120.94129 | 5162 ft | 245 kts | 91° |
| 2026-05-05 11:58 | 24.92719 | 120.95902 | 5041 ft | 229 kts | 71° |
| 2026-05-05 11:58 | 24.93240 | 120.97504 | 4860 ft | 217 kts | 71° |
| 2026-05-05 11:58 | 24.93748 | 120.99051 | 4530 ft | 213 kts | 71° |
| 2026-05-05 11:59 | 24.94253 | 121.00581 | 4179 ft | 211 kts | 71° |
| 2026-05-05 11:59 | 24.94754 | 121.02091 | 3825 ft | 209 kts | 71° |
| 2026-05-05 11:59 | 24.95189 | 121.03607 | 3483 ft | 206 kts | 79° |
| 2026-05-05 11:59 | 24.95446 | 121.05161 | 3249 ft | 205 kts | 82° |
| 2026-05-05 12:00 | 24.95773 | 121.06680 | 3030 ft | 204 kts | 66° |
| 2026-05-05 12:00 | 24.96545 | 121.07976 | 2795 ft | 203 kts | 49° |
| 2026-05-05 12:00 | 24.97471 | 121.09146 | 2598 ft | 202 kts | 49° |
| 2026-05-05 12:00 | 24.98382 | 121.10297 | 2534 ft | 193 kts | 49° |
| 2026-05-05 12:01 | 24.99235 | 121.11378 | 2390 ft | 183 kts | 49° |
| 2026-05-05 12:01 | 25.00056 | 121.12418 | 2184 ft | 177 kts | 49° |
| 2026-05-05 12:01 | 25.00855 | 121.13432 | 1965 ft | 173 kts | 49° |
| 2026-05-05 12:01 | 25.01639 | 121.14426 | 1746 ft | 170 kts | 49° |
| 2026-05-05 12:02 | 25.02379 | 121.15364 | 1532 ft | 160 kts | 49° |
| 2026-05-05 12:02 | 25.03082 | 121.16256 | 1340 ft | 148 kts | 50° |
| 2026-05-05 12:02 | 25.03758 | 121.17114 | 1136 ft | 144 kts | 49° |
| 2026-05-05 12:02 | 25.04410 | 121.17942 | 962 ft | 142 kts | 50° |
| 2026-05-05 12:03 | 25.05047 | 121.18750 | 783 ft | 140 kts | 50° |
| 2026-05-05 12:03 | 25.05684 | 121.19559 | 602 ft | 139 kts | 50° |
| 2026-05-05 12:03 | 25.06317 | 121.20362 | 414 ft | 136 kts | 52° |
| 2026-05-05 12:03 | 25.06936 | 121.21148 | 238 ft | 135 kts | 52° |
| 2026-05-05 12:04 | 25.07551 | 121.21931 | 99 ft | 132 kts | 51° |
| 2026-05-05 12:04 | 25.08060 | 121.22581 | 88 ft | 88 kts | 49° |
| 2026-05-05 12:04 | 25.08351 | 121.22955 | 84 ft | 43 kts | 50° |
| 2026-05-05 12:04 | 25.08438 | 121.23156 | 87 ft | 22 kts | 74° |
| 2026-05-05 12:05 | 25.08459 | 121.23285 | 83 ft | 15 kts | 84° |
| 2026-05-05 12:05 | 25.08406 | 121.23329 | 84 ft | 12 kts | 200° |
| 2026-05-05 12:05 | 25.08338 | 121.23262 | 87 ft | 14 kts | 224° |
| 2026-05-05 12:05 | 25.08268 | 121.23175 | 88 ft | 16 kts | 230° |
| 2026-05-05 12:06 | 25.08190 | 121.23073 | 88 ft | 18 kts | 230° |
| 2026-05-05 12:06 | 25.08105 | 121.22961 | 88 ft | 16 kts | 229° |
| 2026-05-05 12:06 | 25.08018 | 121.22940 | 87 ft | 14 kts | 149° |
| 2026-05-05 12:06 | 25.07931 | 121.22903 | 91 ft | 16 kts | 230° |
| 2026-05-05 12:07 | 25.07853 | 121.22804 | 88 ft | 18 kts | 229° |
| 2026-05-05 12:07 | 25.07783 | 121.22746 | 90 ft | 7 kts | 141° |
| 2026-05-05 12:07 | 25.07740 | 121.22794 | 91 ft | 10 kts | 139° |
| 2026-05-05 12:07 | 25.07709 | 121.22824 | 89 ft | 0 kts | 139° |